Time,TemperatureF,DewpointF,PressureIn,WindDirection,WindDirectionDegrees,WindSpeedMPH,WindSpeedGustMPH,Humidity,HourlyPrecipIn,Conditions,Clouds,dailyrainin,SoftwareType,DateUTC
2013-05-05 00:01:00,48.4,40.5,30.27,ESE,119,1.0,2.0,74,0.00,,,0.00,meteohub,2013-05-05 04:01:00,
2013-05-05 00:06:00,48.2,40.6,30.27,ESE,119,1.0,2.0,75,0.00,,,0.00,meteohub,2013-05-05 04:06:00,
2013-05-05 00:11:00,47.8,40.6,30.27,ESE,119,2.0,2.0,76,0.00,,,0.00,meteohub,2013-05-05 04:11:00,
2013-05-05 00:16:00,47.7,40.5,30.27,East,89,2.0,2.0,76,0.00,,,0.00,meteohub,2013-05-05 04:16:00,
2013-05-05 00:22:00,47.7,40.5,30.27,ENE,63,2.0,2.0,76,0.00,,,0.00,meteohub,2013-05-05 04:22:00,
2013-05-05 00:27:00,47.7,39.0,30.27,ENE,65,2.0,3.0,72,0.00,,,0.00,meteohub,2013-05-05 04:27:00,
2013-05-05 00:32:00,47.7,38.3,30.27,NE,55,2.0,3.0,70,0.00,,,0.00,meteohub,2013-05-05 04:32:00,
2013-05-05 00:37:00,47.7,37.9,30.27,ENE,59,3.0,3.0,69,0.00,,,0.00,meteohub,2013-05-05 04:37:00,
2013-05-05 00:42:00,47.7,37.2,30.27,ENE,66,2.0,3.0,67,0.00,,,0.00,meteohub,2013-05-05 04:42:00,
2013-05-05 00:47:00,47.7,36.9,30.27,ENE,74,1.0,3.0,66,0.00,,,0.00,meteohub,2013-05-05 04:47:00,
2013-05-05 00:52:00,47.7,36.9,30.27,ENE,67,1.0,3.0,66,0.00,,,0.00,meteohub,2013-05-05 04:52:00,
2013-05-05 00:57:00,47.7,36.9,30.27,ENE,59,2.0,3.0,66,0.00,,,0.00,meteohub,2013-05-05 04:57:00,
2013-05-05 01:02:00,47.5,36.7,30.27,NE,54,2.0,3.0,66,0.00,,,0.00,meteohub,2013-05-05 05:02:00,
2013-05-05 01:07:00,47.3,36.9,30.27,ENE,63,2.0,3.0,67,0.00,,,0.00,meteohub,2013-05-05 05:07:00,
2013-05-05 01:12:00,47.1,37.0,30.27,ENE,78,2.0,3.0,68,0.00,,,0.00,meteohub,2013-05-05 05:12:00,
2013-05-05 01:17:00,46.9,36.9,30.27,ENE,78,1.0,3.0,68,0.00,,,0.00,meteohub,2013-05-05 05:17:00,
2013-05-05 01:22:00,46.8,37.6,30.27,East,81,0.0,3.0,70,0.00,,,0.00,meteohub,2013-05-05 05:22:00,
2013-05-05 01:27:00,46.4,37.2,30.27,ENE,69,0.0,3.0,70,0.00,,,0.00,meteohub,2013-05-05 05:27:00,
2013-05-05 01:32:00,46.2,37.4,30.27,ENE,69,1.0,3.0,71,0.00,,,0.00,meteohub,2013-05-05 05:32:00,
2013-05-05 01:37:00,46.0,37.6,30.27,ENE,69,1.0,3.0,72,0.00,,,0.00,meteohub,2013-05-05 05:37:00,
2013-05-05 01:42:00,45.9,37.4,30.27,ENE,69,0.0,2.0,72,0.00,,,0.00,meteohub,2013-05-05 05:42:00,
2013-05-05 01:47:00,45.7,37.2,30.27,ENE,73,1.0,2.0,72,0.00,,,0.00,meteohub,2013-05-05 05:47:00,
2013-05-05 01:52:00,45.3,37.2,30.26,ENE,73,1.0,2.0,73,0.00,,,0.00,meteohub,2013-05-05 05:52:00,
2013-05-05 01:57:00,45.1,37.4,30.26,ENE,69,0.0,2.0,74,0.00,,,0.00,meteohub,2013-05-05 05:57:00,
2013-05-05 02:02:00,44.8,37.4,30.26,ENE,68,1.0,2.0,75,0.00,,,0.00,meteohub,2013-05-05 06:02:00,
2013-05-05 02:07:00,44.4,37.0,30.26,ENE,72,0.0,2.0,75,0.00,,,0.00,meteohub,2013-05-05 06:07:00,
2013-05-05 02:12:00,44.2,37.6,30.26,ENE,70,0.0,2.0,77,0.00,,,0.00,meteohub,2013-05-05 06:12:00,
2013-05-05 02:17:00,44.1,37.4,30.25,ENE,71,2.0,2.0,77,0.00,,,0.00,meteohub,2013-05-05 06:17:00,
2013-05-05 02:22:00,44.1,37.4,30.25,ENE,67,2.0,3.0,77,0.00,,,0.00,meteohub,2013-05-05 06:22:00,
2013-05-05 02:27:00,44.1,37.6,30.25,ENE,67,1.0,3.0,78,0.00,,,0.00,meteohub,2013-05-05 06:27:00,
2013-05-05 02:32:00,43.9,37.4,30.25,ENE,67,1.0,3.0,78,0.00,,,0.00,meteohub,2013-05-05 06:32:00,
2013-05-05 02:37:00,43.7,37.2,30.25,ENE,69,1.0,3.0,78,0.00,,,0.00,meteohub,2013-05-05 06:37:00,
2013-05-05 02:42:00,43.5,37.8,30.25,ENE,66,1.0,2.0,80,0.00,,,0.00,meteohub,2013-05-05 06:42:00,
2013-05-05 02:47:00,43.2,37.4,30.25,ENE,66,1.0,2.0,80,0.00,,,0.00,meteohub,2013-05-05 06:47:00,
2013-05-05 02:52:00,43.0,37.2,30.25,ENE,66,1.0,3.0,80,0.00,,,0.00,meteohub,2013-05-05 06:52:00,
2013-05-05 02:57:00,42.8,37.0,30.25,ENE,65,1.0,3.0,80,0.00,,,0.00,meteohub,2013-05-05 06:57:00,
2013-05-05 03:02:00,42.8,37.4,30.25,ENE,65,0.0,3.0,81,0.00,,,0.00,meteohub,2013-05-05 07:02:00,
2013-05-05 03:07:00,42.6,37.2,30.25,ENE,65,1.0,2.0,81,0.00,,,0.00,meteohub,2013-05-05 07:07:00,
2013-05-05 03:12:00,42.6,37.6,30.25,ENE,65,1.0,2.0,82,0.00,,,0.00,meteohub,2013-05-05 07:12:00,
2013-05-05 03:17:00,42.4,37.6,30.25,ENE,65,0.0,2.0,83,0.00,,,0.00,meteohub,2013-05-05 07:17:00,
2013-05-05 03:22:00,42.3,37.8,30.25,ENE,66,1.0,2.0,84,0.00,,,0.00,meteohub,2013-05-05 07:22:00,
2013-05-05 03:27:00,41.9,37.8,30.25,ENE,67,2.0,2.0,85,0.00,,,0.00,meteohub,2013-05-05 07:27:00,
2013-05-05 03:32:00,41.7,37.6,30.25,ENE,66,1.0,2.0,85,0.00,,,0.00,meteohub,2013-05-05 07:32:00,
2013-05-05 03:37:00,41.5,37.6,30.25,ENE,66,2.0,3.0,86,0.00,,,0.00,meteohub,2013-05-05 07:37:00,
2013-05-05 03:42:00,41.5,37.6,30.25,ENE,61,1.0,4.0,86,0.00,,,0.00,meteohub,2013-05-05 07:42:00,
2013-05-05 03:47:00,41.4,37.6,30.25,ENE,61,1.0,4.0,86,0.00,,,0.00,meteohub,2013-05-05 07:47:00,
2013-05-05 03:52:00,41.2,37.4,30.25,ENE,61,0.0,4.0,86,0.00,,,0.00,meteohub,2013-05-05 07:52:00,
2013-05-05 03:57:00,41.0,37.8,30.25,ENE,68,1.0,2.0,88,0.00,,,0.00,meteohub,2013-05-05 07:57:00,
2013-05-05 04:02:00,41.2,37.9,30.25,NE,56,2.0,3.0,88,0.00,,,0.00,meteohub,2013-05-05 08:02:00,
2013-05-05 04:07:00,41.4,38.1,30.25,ENE,63,2.0,4.0,88,0.00,,,0.00,meteohub,2013-05-05 08:07:00,
2013-05-05 04:12:00,41.7,38.5,30.25,ENE,65,3.0,4.0,88,0.00,,,0.00,meteohub,2013-05-05 08:12:00,
2013-05-05 04:17:00,42.1,38.5,30.25,NE,56,2.0,4.0,87,0.00,,,0.00,meteohub,2013-05-05 08:17:00,
2013-05-05 04:22:00,42.3,38.7,30.25,ENE,62,3.0,4.0,87,0.00,,,0.00,meteohub,2013-05-05 08:22:00,
2013-05-05 04:27:00,42.3,38.3,30.25,ENE,59,1.0,4.0,86,0.00,,,0.00,meteohub,2013-05-05 08:27:00,
2013-05-05 04:32:00,42.4,38.5,30.25,ENE,57,2.0,4.0,86,0.00,,,0.00,meteohub,2013-05-05 08:32:00,
2013-05-05 04:37:00,42.4,38.5,30.25,NE,44,3.0,5.0,86,0.00,,,0.00,meteohub,2013-05-05 08:37:00,
2013-05-05 04:42:00,42.4,38.5,30.25,NE,51,3.0,5.0,86,0.00,,,0.00,meteohub,2013-05-05 08:42:00,
2013-05-05 04:47:00,42.4,38.5,30.25,ENE,59,3.0,5.0,86,0.00,,,0.00,meteohub,2013-05-05 08:47:00,
2013-05-05 04:52:00,42.4,38.5,30.25,ENE,57,1.0,5.0,86,0.00,,,0.00,meteohub,2013-05-05 08:52:00,
2013-05-05 04:57:00,42.4,38.3,30.25,ENE,59,2.0,4.0,85,0.00,,,0.00,meteohub,2013-05-05 08:57:00,
2013-05-05 05:02:00,42.4,38.5,30.25,ENE,57,2.0,3.0,86,0.00,,,0.00,meteohub,2013-05-05 09:02:00,
2013-05-05 05:07:00,42.3,38.3,30.25,NE,52,2.0,4.0,86,0.00,,,0.00,meteohub,2013-05-05 09:07:00,
2013-05-05 05:12:00,42.3,38.3,30.25,ENE,60,2.0,4.0,86,0.00,,,0.00,meteohub,2013-05-05 09:12:00,
2013-05-05 05:17:00,42.1,38.1,30.25,ENE,57,2.0,4.0,86,0.00,,,0.00,meteohub,2013-05-05 09:17:00,
2013-05-05 05:22:00,42.1,38.1,30.25,ENE,58,3.0,4.0,86,0.00,,,0.00,meteohub,2013-05-05 09:22:00,
2013-05-05 05:27:00,41.9,37.9,30.25,ENE,59,2.0,4.0,86,0.00,,,0.00,meteohub,2013-05-05 09:27:00,
2013-05-05 05:32:00,41.7,37.8,30.25,NE,55,2.0,4.0,86,0.00,,,0.00,meteohub,2013-05-05 09:32:00,
2013-05-05 05:37:00,41.7,38.1,30.25,ENE,61,2.0,3.0,87,0.00,,,0.00,meteohub,2013-05-05 09:37:00,
2013-05-05 05:42:00,41.7,38.1,30.25,ENE,61,2.0,3.0,87,0.00,,,0.00,meteohub,2013-05-05 09:42:00,
2013-05-05 05:47:00,41.7,38.1,30.25,NE,42,1.0,3.0,87,0.00,,,0.00,meteohub,2013-05-05 09:47:00,
2013-05-05 05:52:00,41.7,38.1,30.25,ENE,60,3.0,3.0,87,0.00,,,0.00,meteohub,2013-05-05 09:52:00,
2013-05-05 05:57:00,41.9,38.3,30.25,ENE,61,3.0,4.0,87,0.00,,,0.00,meteohub,2013-05-05 09:57:00,
2013-05-05 06:02:00,42.1,38.5,30.25,ENE,65,1.0,4.0,87,0.00,,,0.00,meteohub,2013-05-05 10:02:00,
2013-05-05 06:07:00,42.3,38.7,30.25,ENE,68,2.0,4.0,87,0.00,,,0.00,meteohub,2013-05-05 10:07:00,
2013-05-05 06:12:00,42.4,38.5,30.25,ENE,64,1.0,5.0,86,0.00,,,0.00,meteohub,2013-05-05 10:12:00,
2013-05-05 06:17:00,42.6,38.7,30.25,NE,54,1.0,5.0,86,0.00,,,0.00,meteohub,2013-05-05 10:17:00,
2013-05-05 06:22:00,43.0,38.8,30.25,ENE,64,4.0,7.0,85,0.00,,,0.00,meteohub,2013-05-05 10:22:00,
2013-05-05 06:27:00,43.0,38.5,30.26,ENE,67,2.0,7.0,84,0.00,,,0.00,meteohub,2013-05-05 10:27:00,
2013-05-05 06:32:00,43.2,38.3,30.26,ENE,71,3.0,7.0,83,0.00,,,0.00,meteohub,2013-05-05 10:32:00,
2013-05-05 06:37:00,43.3,38.3,30.26,ENE,60,2.0,7.0,82,0.00,,,0.00,meteohub,2013-05-05 10:37:00,
2013-05-05 06:42:00,43.3,38.3,30.26,NNE,18,3.0,7.0,82,0.00,,,0.00,meteohub,2013-05-05 10:42:00,
2013-05-05 06:47:00,43.5,38.1,30.26,NE,56,5.0,7.0,81,0.00,,,0.00,meteohub,2013-05-05 10:47:00,
2013-05-05 06:52:00,43.5,38.1,30.26,ENE,70,1.0,7.0,81,0.00,,,0.00,meteohub,2013-05-05 10:52:00,
2013-05-05 06:57:00,43.7,37.9,30.27,NE,53,3.0,7.0,80,0.00,,,0.00,meteohub,2013-05-05 10:57:00,
2013-05-05 07:02:00,43.7,37.9,30.27,NNE,29,2.0,9.0,80,0.00,,,0.00,meteohub,2013-05-05 11:02:00,
2013-05-05 07:07:00,43.9,38.1,30.27,East,82,1.0,9.0,80,0.00,,,0.00,meteohub,2013-05-05 11:07:00,
2013-05-05 07:12:00,43.9,38.1,30.27,ENE,59,2.0,9.0,80,0.00,,,0.00,meteohub,2013-05-05 11:12:00,
2013-05-05 07:17:00,43.9,38.1,30.27,NNE,29,2.0,5.0,80,0.00,,,0.00,meteohub,2013-05-05 11:17:00,
2013-05-05 07:22:00,43.9,37.8,30.27,NE,41,4.0,7.0,79,0.00,,,0.00,meteohub,2013-05-05 11:22:00,
2013-05-05 07:27:00,44.1,37.6,30.27,NE,46,3.0,7.0,78,0.00,,,0.00,meteohub,2013-05-05 11:27:00,
2013-05-05 07:32:00,44.1,37.6,30.27,ENE,76,1.0,8.0,78,0.00,,,0.00,meteohub,2013-05-05 11:32:00,
2013-05-05 07:37:00,44.1,37.4,30.27,ENE,69,2.0,8.0,77,0.00,,,0.00,meteohub,2013-05-05 11:37:00,
2013-05-05 07:42:00,44.2,37.8,30.27,ENE,65,2.0,8.0,78,0.00,,,0.00,meteohub,2013-05-05 11:42:00,
2013-05-05 07:47:00,44.2,37.6,30.27,ENE,61,4.0,6.0,77,0.00,,,0.00,meteohub,2013-05-05 11:47:00,
2013-05-05 07:52:00,44.4,37.6,30.27,NE,45,2.0,7.0,77,0.00,,,0.00,meteohub,2013-05-05 11:52:00,
2013-05-05 07:57:00,44.6,37.6,30.27,ENE,71,2.0,7.0,76,0.00,,,0.00,meteohub,2013-05-05 11:57:00,
2013-05-05 08:02:00,44.8,37.8,30.27,ENE,57,3.0,8.0,76,0.00,,,0.00,meteohub,2013-05-05 12:02:00,
2013-05-05 08:07:00,44.8,37.8,30.27,ENE,67,4.0,8.0,76,0.00,,,0.00,meteohub,2013-05-05 12:07:00,
2013-05-05 08:12:00,45.0,37.9,30.27,NE,52,1.0,8.0,76,0.00,,,0.00,meteohub,2013-05-05 12:12:00,
2013-05-05 08:17:00,45.1,38.3,30.27,East,94,2.0,8.0,77,0.00,,,0.00,meteohub,2013-05-05 12:17:00,
2013-05-05 08:22:00,45.3,38.1,30.27,ENE,73,2.0,5.0,76,0.00,,,0.00,meteohub,2013-05-05 12:22:00,
2013-05-05 08:27:00,45.7,38.3,30.27,ENE,59,3.0,6.0,75,0.00,,,0.00,meteohub,2013-05-05 12:27:00,
2013-05-05 08:32:00,45.9,38.3,30.27,NNE,19,3.0,6.0,75,0.00,,,0.00,meteohub,2013-05-05 12:32:00,
2013-05-05 08:37:00,46.0,38.5,30.27,North,9,5.0,6.0,75,0.00,,,0.00,meteohub,2013-05-05 12:37:00,
2013-05-05 08:42:00,46.2,38.5,30.27,ENE,77,1.0,7.0,74,0.00,,,0.00,meteohub,2013-05-05 12:42:00,
2013-05-05 08:47:00,46.4,38.5,30.27,ENE,75,2.0,7.0,74,0.00,,,0.00,meteohub,2013-05-05 12:47:00,
2013-05-05 08:52:00,46.6,38.5,30.28,NNE,29,2.0,7.0,73,0.00,,,0.00,meteohub,2013-05-05 12:52:00,
2013-05-05 08:57:00,46.8,38.5,30.28,NE,34,3.0,6.0,73,0.00,,,0.00,meteohub,2013-05-05 12:57:00,
2013-05-05 09:02:00,46.9,38.7,30.27,NE,44,4.0,7.0,73,0.00,,,0.00,meteohub,2013-05-05 13:02:00,
2013-05-05 09:07:00,47.3,38.7,30.27,ENE,62,3.0,7.0,72,0.00,,,0.00,meteohub,2013-05-05 13:07:00,
2013-05-05 09:12:00,47.7,39.0,30.27,ENE,64,3.0,7.0,72,0.00,,,0.00,meteohub,2013-05-05 13:12:00,
2013-05-05 09:17:00,48.2,39.2,30.27,NE,46,3.0,6.0,71,0.00,,,0.00,meteohub,2013-05-05 13:17:00,
2013-05-05 09:22:00,48.6,39.2,30.27,NE,47,2.0,6.0,70,0.00,,,0.00,meteohub,2013-05-05 13:22:00,
2013-05-05 09:27:00,48.9,39.9,30.27,NE,44,1.0,6.0,71,0.00,,,0.00,meteohub,2013-05-05 13:27:00,
2013-05-05 09:32:00,49.5,39.4,30.27,NNE,30,3.0,6.0,68,0.00,,,0.00,meteohub,2013-05-05 13:32:00,
2013-05-05 09:37:00,49.6,39.9,30.27,NE,49,3.0,6.0,69,0.00,,,0.00,meteohub,2013-05-05 13:37:00,
2013-05-05 09:42:00,51.1,40.5,30.27,NNE,23,3.0,6.0,67,0.00,,,0.00,meteohub,2013-05-05 13:42:00,
2013-05-05 09:47:00,51.1,39.7,30.27,NE,41,3.0,7.0,65,0.00,,,0.00,meteohub,2013-05-05 13:47:00,
2013-05-05 09:52:00,51.1,40.1,30.27,ENE,60,3.0,7.0,66,0.00,,,0.00,meteohub,2013-05-05 13:52:00,
2013-05-05 09:57:00,51.4,39.7,30.27,NE,44,3.0,8.0,64,0.00,,,0.00,meteohub,2013-05-05 13:57:00,
2013-05-05 10:02:00,51.1,40.5,30.27,NNE,19,3.0,8.0,67,0.00,,,0.00,meteohub,2013-05-05 14:02:00,
2013-05-05 10:07:00,51.6,40.6,30.27,NE,35,2.0,8.0,66,0.00,,,0.00,meteohub,2013-05-05 14:07:00,
2013-05-05 10:12:00,53.1,39.9,30.27,ENE,69,2.0,7.0,61,0.00,,,0.00,meteohub,2013-05-05 14:12:00,
2013-05-05 10:17:00,53.4,40.6,30.27,NNE,16,3.0,9.0,62,0.00,,,0.00,meteohub,2013-05-05 14:17:00,
2013-05-05 10:22:00,53.2,39.7,30.27,NE,50,4.0,9.0,60,0.00,,,0.00,meteohub,2013-05-05 14:22:00,
2013-05-05 10:27:00,53.2,40.1,30.27,NE,39,1.0,9.0,61,0.00,,,0.00,meteohub,2013-05-05 14:27:00,
2013-05-05 10:32:00,53.8,40.6,30.27,ESE,117,1.0,5.0,61,0.00,,,0.00,meteohub,2013-05-05 14:32:00,
2013-05-05 10:37:00,53.4,39.0,30.27,ENE,62,1.0,5.0,58,0.00,,,0.00,meteohub,2013-05-05 14:37:00,
2013-05-05 10:42:00,53.8,40.3,30.26,NE,39,2.0,4.0,60,0.00,,,0.00,meteohub,2013-05-05 14:42:00,
2013-05-05 10:47:00,54.9,39.4,30.27,NE,54,4.0,6.0,56,0.00,,,0.00,meteohub,2013-05-05 14:47:00,
2013-05-05 10:52:00,54.7,40.3,30.27,NE,39,3.0,7.0,58,0.00,,,0.00,meteohub,2013-05-05 14:52:00,
2013-05-05 10:57:00,54.9,39.4,30.27,ENE,62,1.0,7.0,56,0.00,,,0.00,meteohub,2013-05-05 14:57:00,
2013-05-05 11:02:00,54.3,40.3,30.27,SE,144,1.0,7.0,59,0.00,,,0.00,meteohub,2013-05-05 15:02:00,
2013-05-05 11:07:00,55.8,40.8,30.26,NE,41,6.0,7.0,57,0.00,,,0.00,meteohub,2013-05-05 15:07:00,
2013-05-05 11:12:00,56.1,40.1,30.26,ENE,61,2.0,7.0,55,0.00,,,0.00,meteohub,2013-05-05 15:12:00,
2013-05-05 11:17:00,57.2,40.3,30.26,ENE,72,3.0,7.0,53,0.00,,,0.00,meteohub,2013-05-05 15:17:00,
2013-05-05 11:22:00,56.8,39.9,30.26,ENE,68,5.0,7.0,53,0.00,,,0.00,meteohub,2013-05-05 15:22:00,
2013-05-05 11:27:00,56.3,39.4,30.25,ESE,112,1.0,5.0,53,0.00,,,0.00,meteohub,2013-05-05 15:27:00,
2013-05-05 11:32:00,57.0,40.1,30.25,ENE,69,2.0,5.0,53,0.00,,,0.00,meteohub,2013-05-05 15:32:00,
2013-05-05 11:37:00,57.9,40.5,30.25,East,90,3.0,6.0,52,0.00,,,0.00,meteohub,2013-05-05 15:37:00,
2013-05-05 11:42:00,57.6,39.0,30.25,NE,40,3.0,7.0,50,0.00,,,0.00,meteohub,2013-05-05 15:42:00,
2013-05-05 11:47:00,57.6,39.6,30.25,ENE,57,3.0,7.0,51,0.00,,,0.00,meteohub,2013-05-05 15:47:00,
2013-05-05 11:52:00,57.4,40.5,30.25,NNE,31,2.0,7.0,53,0.00,,,0.00,meteohub,2013-05-05 15:52:00,
2013-05-05 11:57:00,58.1,39.6,30.25,NE,42,3.0,7.0,50,0.00,,,0.00,meteohub,2013-05-05 15:57:00,
2013-05-05 12:02:00,58.6,40.1,30.25,East,84,1.0,7.0,50,0.00,,,0.00,meteohub,2013-05-05 16:02:00,
2013-05-05 12:07:00,59.5,41.4,30.25,ENE,63,9.0,9.0,51,0.00,,,0.00,meteohub,2013-05-05 16:07:00,
2013-05-05 12:12:00,58.6,40.1,30.24,ENE,61,3.0,9.0,50,0.00,,,0.00,meteohub,2013-05-05 16:12:00,
2013-05-05 12:17:00,57.4,39.9,30.24,ESE,118,2.0,9.0,52,0.00,,,0.00,meteohub,2013-05-05 16:17:00,
2013-05-05 12:22:00,57.4,41.4,30.24,South,175,0.0,9.0,55,0.00,,,0.00,meteohub,2013-05-05 16:22:00,
2013-05-05 12:27:00,58.6,42.1,30.24,ENE,59,4.0,7.0,54,0.00,,,0.00,meteohub,2013-05-05 16:27:00,
2013-05-05 12:32:00,59.5,41.4,30.24,NNE,33,3.0,5.0,51,0.00,,,0.00,meteohub,2013-05-05 16:32:00,
2013-05-05 12:37:00,60.3,41.5,30.24,ENE,63,1.0,8.0,50,0.00,,,0.00,meteohub,2013-05-05 16:37:00,
2013-05-05 12:42:00,60.3,42.1,30.23,NE,49,3.0,8.0,51,0.00,,,0.00,meteohub,2013-05-05 16:42:00,
2013-05-05 12:47:00,61.2,43.0,30.23,ENE,64,4.0,8.0,51,0.00,,,0.00,meteohub,2013-05-05 16:47:00,
2013-05-05 12:52:00,61.7,40.6,30.23,NE,55,6.0,8.0,46,0.00,,,0.00,meteohub,2013-05-05 16:52:00,
2013-05-05 12:57:00,61.3,40.5,30.23,SE,130,2.0,8.0,46,0.00,,,0.00,meteohub,2013-05-05 16:57:00,
2013-05-05 13:02:00,61.0,40.6,30.23,ENE,67,2.0,8.0,47,0.00,,,0.00,meteohub,2013-05-05 17:02:00,
2013-05-05 13:07:00,60.4,41.2,30.23,NE,50,4.0,7.0,49,0.00,,,0.00,meteohub,2013-05-05 17:07:00,
2013-05-05 13:12:00,61.0,41.2,30.23,ENE,61,7.0,7.0,48,0.00,,,0.00,meteohub,2013-05-05 17:12:00,
2013-05-05 13:17:00,61.2,41.4,30.23,NE,47,0.0,7.0,48,0.00,,,0.00,meteohub,2013-05-05 17:17:00,
2013-05-05 13:22:00,61.2,41.4,30.23,ENE,73,5.0,7.0,48,0.00,,,0.00,meteohub,2013-05-05 17:22:00,
2013-05-05 13:27:00,60.6,40.8,30.22,ENE,66,2.0,8.0,48,0.00,,,0.00,meteohub,2013-05-05 17:27:00,
2013-05-05 13:32:00,61.2,40.8,30.22,ENE,68,2.0,8.0,47,0.00,,,0.00,meteohub,2013-05-05 17:32:00,
2013-05-05 13:37:00,61.5,41.7,30.22,East,79,2.0,8.0,48,0.00,,,0.00,meteohub,2013-05-05 17:37:00,
2013-05-05 13:42:00,61.3,41.0,30.22,SSE,167,3.0,4.0,47,0.00,,,0.00,meteohub,2013-05-05 17:42:00,
2013-05-05 13:47:00,60.6,39.7,30.22,NE,52,5.0,6.0,46,0.00,,,0.00,meteohub,2013-05-05 17:47:00,
2013-05-05 13:52:00,61.5,41.2,30.22,East,81,1.0,9.0,47,0.00,,,0.00,meteohub,2013-05-05 17:52:00,
2013-05-05 13:57:00,61.0,40.6,30.22,SSW,192,1.0,9.0,47,0.00,,,0.00,meteohub,2013-05-05 17:57:00,
2013-05-05 14:02:00,62.1,41.5,30.22,NE,53,0.0,9.0,47,0.00,,,0.00,meteohub,2013-05-05 18:02:00,
2013-05-05 14:07:00,62.1,41.0,30.22,SSE,161,3.0,5.0,46,0.00,,,0.00,meteohub,2013-05-05 18:07:00,
2013-05-05 14:12:00,61.3,41.0,30.22,SSE,150,1.0,6.0,47,0.00,,,0.00,meteohub,2013-05-05 18:12:00,
2013-05-05 14:17:00,61.9,40.3,30.22,ENE,58,1.0,6.0,45,0.00,,,0.00,meteohub,2013-05-05 18:17:00,
2013-05-05 14:22:00,62.8,42.3,30.22,NE,42,2.0,6.0,47,0.00,,,0.00,meteohub,2013-05-05 18:22:00,
2013-05-05 14:27:00,62.2,40.1,30.22,NE,46,2.0,6.0,44,0.00,,,0.00,meteohub,2013-05-05 18:27:00,
2013-05-05 14:32:00,61.5,40.5,30.22,SE,136,3.0,6.0,46,0.00,,,0.00,meteohub,2013-05-05 18:32:00,
2013-05-05 14:37:00,62.1,41.0,30.22,ENE,58,5.0,5.0,46,0.00,,,0.00,meteohub,2013-05-05 18:37:00,
2013-05-05 14:42:00,63.1,41.5,30.22,SE,142,2.0,5.0,45,0.00,,,0.00,meteohub,2013-05-05 18:42:00,
2013-05-05 14:47:00,63.5,40.6,30.22,ENE,69,3.0,5.0,43,0.00,,,0.00,meteohub,2013-05-05 18:47:00,
2013-05-05 14:52:00,63.0,40.6,30.21,SSE,167,1.0,5.0,44,0.00,,,0.00,meteohub,2013-05-05 18:52:00,
2013-05-05 14:57:00,62.6,41.5,30.21,South,184,2.0,4.0,46,0.00,,,0.00,meteohub,2013-05-05 18:57:00,
2013-05-05 15:02:00,62.1,39.9,30.21,SSE,148,1.0,5.0,44,0.00,,,0.00,meteohub,2013-05-05 19:02:00,
2013-05-05 15:07:00,63.3,41.0,30.21,ENE,57,2.0,5.0,44,0.00,,,0.00,meteohub,2013-05-05 19:07:00,
2013-05-05 15:12:00,63.7,40.1,30.20,ENE,66,2.0,6.0,42,0.00,,,0.00,meteohub,2013-05-05 19:12:00,
2013-05-05 15:17:00,63.7,40.1,30.20,ENE,78,3.0,6.0,42,0.00,,,0.00,meteohub,2013-05-05 19:17:00,
2013-05-05 15:22:00,64.6,39.7,30.20,ENE,71,5.0,6.0,40,0.00,,,0.00,meteohub,2013-05-05 19:22:00,
2013-05-05 15:27:00,64.8,39.9,30.20,East,101,1.0,6.0,40,0.00,,,0.00,meteohub,2013-05-05 19:27:00,
2013-05-05 15:32:00,64.0,40.5,30.19,East,88,1.0,5.0,42,0.00,,,0.00,meteohub,2013-05-05 19:32:00,
2013-05-05 15:37:00,64.2,38.7,30.20,East,83,1.0,7.0,39,0.00,,,0.00,meteohub,2013-05-05 19:37:00,
2013-05-05 15:42:00,64.2,39.4,30.20,ENE,71,4.0,7.0,40,0.00,,,0.00,meteohub,2013-05-05 19:42:00,
2013-05-05 15:47:00,65.1,40.3,30.20,ENE,59,2.0,7.0,40,0.00,,,0.00,meteohub,2013-05-05 19:47:00,
2013-05-05 15:52:00,64.8,41.7,30.20,SE,127,2.0,7.0,43,0.00,,,0.00,meteohub,2013-05-05 19:52:00,
2013-05-05 15:57:00,63.5,39.4,30.19,SSE,157,3.0,7.0,41,0.00,,,0.00,meteohub,2013-05-05 19:57:00,
2013-05-05 16:02:00,63.3,40.5,30.19,ESE,112,1.0,7.0,43,0.00,,,0.00,meteohub,2013-05-05 20:02:00,
2013-05-05 16:07:00,63.1,39.7,30.19,SE,140,1.0,6.0,42,0.00,,,0.00,meteohub,2013-05-05 20:07:00,
2013-05-05 16:12:00,63.1,39.7,30.19,NNE,31,3.0,6.0,42,0.00,,,0.00,meteohub,2013-05-05 20:12:00,
2013-05-05 16:17:00,63.3,39.9,30.19,SE,140,1.0,5.0,42,0.00,,,0.00,meteohub,2013-05-05 20:17:00,
2013-05-05 16:22:00,63.1,40.3,30.19,East,98,1.0,7.0,43,0.00,,,0.00,meteohub,2013-05-05 20:22:00,
2013-05-05 16:27:00,63.3,39.9,30.19,NE,56,4.0,7.0,42,0.00,,,0.00,meteohub,2013-05-05 20:27:00,
2013-05-05 16:32:00,63.5,39.4,30.19,NE,45,5.0,7.0,41,0.00,,,0.00,meteohub,2013-05-05 20:32:00,
2013-05-05 16:37:00,63.7,38.8,30.19,NE,53,4.0,7.0,40,0.00,,,0.00,meteohub,2013-05-05 20:37:00,
2013-05-05 16:42:00,63.9,40.3,30.19,East,81,1.0,7.0,42,0.00,,,0.00,meteohub,2013-05-05 20:42:00,
2013-05-05 16:47:00,63.9,40.3,30.19,SE,138,5.0,7.0,42,0.00,,,0.00,meteohub,2013-05-05 20:47:00,
2013-05-05 16:52:00,63.5,41.2,30.19,SE,134,1.0,6.0,44,0.00,,,0.00,meteohub,2013-05-05 20:52:00,
2013-05-05 16:57:00,63.1,40.3,30.19,ESE,121,2.0,6.0,43,0.00,,,0.00,meteohub,2013-05-05 20:57:00,
2013-05-05 17:02:00,62.8,40.5,30.19,South,178,3.0,6.0,44,0.00,,,0.00,meteohub,2013-05-05 21:02:00,
2013-05-05 17:07:00,62.4,40.8,30.19,East,84,2.0,5.0,45,0.00,,,0.00,meteohub,2013-05-05 21:07:00,
2013-05-05 17:12:00,62.2,39.4,30.19,ESE,115,2.0,5.0,43,0.00,,,0.00,meteohub,2013-05-05 21:12:00,
2013-05-05 17:17:00,62.1,40.5,30.19,SE,136,3.0,5.0,45,0.00,,,0.00,meteohub,2013-05-05 21:17:00,
2013-05-05 17:22:00,62.1,41.0,30.19,ESE,111,2.0,5.0,46,0.00,,,0.00,meteohub,2013-05-05 21:22:00,
2013-05-05 17:27:00,62.1,40.5,30.19,SE,140,4.0,5.0,45,0.00,,,0.00,meteohub,2013-05-05 21:27:00,
2013-05-05 17:32:00,61.9,40.3,30.19,East,90,0.0,6.0,45,0.00,,,0.00,meteohub,2013-05-05 21:32:00,
2013-05-05 17:37:00,61.9,40.3,30.19,South,170,3.0,7.0,45,0.00,,,0.00,meteohub,2013-05-05 21:37:00,
2013-05-05 17:42:00,61.9,40.3,30.19,SSE,155,3.0,7.0,45,0.00,,,0.00,meteohub,2013-05-05 21:42:00,
2013-05-05 17:47:00,61.5,39.4,30.19,South,179,3.0,7.0,44,0.00,,,0.00,meteohub,2013-05-05 21:47:00,
2013-05-05 17:52:00,61.5,39.9,30.19,SE,140,7.0,7.0,45,0.00,,,0.00,meteohub,2013-05-05 21:52:00,
2013-05-05 17:57:00,61.5,39.4,30.19,NE,48,3.0,7.0,44,0.00,,,0.00,meteohub,2013-05-05 21:57:00,
2013-05-05 18:02:00,61.5,39.9,30.19,East,92,1.0,8.0,45,0.00,,,0.00,meteohub,2013-05-05 22:02:00,
2013-05-05 18:07:00,61.3,40.5,30.19,SSE,152,2.0,8.0,46,0.00,,,0.00,meteohub,2013-05-05 22:07:00,
2013-05-05 18:12:00,61.2,39.0,30.19,SE,140,1.0,8.0,44,0.00,,,0.00,meteohub,2013-05-05 22:12:00,
2013-05-05 18:17:00,61.0,38.8,30.19,South,183,2.0,6.0,44,0.00,,,0.00,meteohub,2013-05-05 22:17:00,
2013-05-05 18:22:00,61.0,38.3,30.19,SSE,162,1.0,6.0,43,0.00,,,0.00,meteohub,2013-05-05 22:22:00,
2013-05-05 18:27:00,60.8,38.7,30.19,SE,136,2.0,5.0,44,0.00,,,0.00,meteohub,2013-05-05 22:27:00,
2013-05-05 18:32:00,60.6,39.7,30.19,East,85,2.0,6.0,46,0.00,,,0.00,meteohub,2013-05-05 22:32:00,
2013-05-05 18:37:00,60.4,39.6,30.19,ENE,65,1.0,6.0,46,0.00,,,0.00,meteohub,2013-05-05 22:37:00,
2013-05-05 18:42:00,60.4,40.1,30.19,ESE,117,1.0,6.0,47,0.00,,,0.00,meteohub,2013-05-05 22:42:00,
2013-05-05 18:47:00,60.3,39.4,30.19,NE,52,2.0,5.0,46,0.00,,,0.00,meteohub,2013-05-05 22:47:00,
2013-05-05 18:52:00,60.1,39.2,30.19,SSE,153,1.0,7.0,46,0.00,,,0.00,meteohub,2013-05-05 22:52:00,
2013-05-05 18:57:00,59.7,39.4,30.19,North,5,1.0,7.0,47,0.00,,,0.00,meteohub,2013-05-05 22:57:00,
2013-05-05 19:02:00,59.7,38.3,30.19,East,88,1.0,7.0,45,0.00,,,0.00,meteohub,2013-05-05 23:02:00,
2013-05-05 19:07:00,59.5,38.1,30.19,NE,47,3.0,4.0,45,0.00,,,0.00,meteohub,2013-05-05 23:07:00,
2013-05-05 19:12:00,59.5,38.7,30.19,ENE,61,2.0,4.0,46,0.00,,,0.00,meteohub,2013-05-05 23:12:00,
2013-05-05 19:17:00,59.4,38.7,30.20,ENE,59,1.0,4.0,46,0.00,,,0.00,meteohub,2013-05-05 23:17:00,
2013-05-05 19:22:00,59.0,38.8,30.20,ENE,59,1.0,4.0,47,0.00,,,0.00,meteohub,2013-05-05 23:22:00,
2013-05-05 19:27:00,58.8,39.2,30.20,ENE,59,1.0,2.0,48,0.00,,,0.00,meteohub,2013-05-05 23:27:00,
2013-05-05 19:32:00,58.5,38.8,30.20,NE,55,2.0,2.0,48,0.00,,,0.00,meteohub,2013-05-05 23:32:00,
2013-05-05 19:37:00,58.3,39.7,30.20,ENE,70,1.0,3.0,50,0.00,,,0.00,meteohub,2013-05-05 23:37:00,
2013-05-05 19:42:00,57.9,39.4,30.20,ENE,71,0.0,3.0,50,0.00,,,0.00,meteohub,2013-05-05 23:42:00,
2013-05-05 19:47:00,57.7,39.7,30.20,ENE,71,0.0,3.0,51,0.00,,,0.00,meteohub,2013-05-05 23:47:00,
2013-05-05 19:52:00,57.4,39.9,30.21,ENE,78,1.0,2.0,52,0.00,,,0.00,meteohub,2013-05-05 23:52:00,
2013-05-05 19:57:00,57.0,39.6,30.21,ENE,78,0.0,2.0,52,0.00,,,0.00,meteohub,2013-05-05 23:57:00,
2013-05-05 20:02:00,56.8,39.9,30.21,SE,144,0.0,2.0,53,0.00,,,0.00,meteohub,2013-05-06 00:02:00,
2013-05-05 20:07:00,56.5,39.6,30.21,SE,144,1.0,2.0,53,0.00,,,0.00,meteohub,2013-05-06 00:07:00,
2013-05-05 20:12:00,56.1,39.2,30.21,South,173,1.0,2.0,53,0.00,,,0.00,meteohub,2013-05-06 00:12:00,
2013-05-05 20:17:00,55.9,39.9,30.21,South,173,1.0,2.0,55,0.00,,,0.00,meteohub,2013-05-06 00:17:00,
2013-05-05 20:22:00,55.8,40.3,30.22,SE,145,1.0,2.0,56,0.00,,,0.00,meteohub,2013-05-06 00:22:00,
2013-05-05 20:27:00,55.4,40.5,30.22,SE,144,0.0,2.0,57,0.00,,,0.00,meteohub,2013-05-06 00:27:00,
2013-05-05 20:32:00,55.0,40.1,30.22,ENE,66,1.0,2.0,57,0.00,,,0.00,meteohub,2013-05-06 00:32:00,
2013-05-05 20:37:00,55.0,40.5,30.22,ENE,77,1.0,4.0,58,0.00,,,0.00,meteohub,2013-05-06 00:37:00,
2013-05-05 20:42:00,54.9,40.3,30.22,ESE,115,1.0,4.0,58,0.00,,,0.00,meteohub,2013-05-06 00:42:00,
2013-05-05 20:47:00,54.9,40.8,30.22,ENE,74,1.0,4.0,59,0.00,,,0.00,meteohub,2013-05-06 00:47:00,
2013-05-05 20:52:00,54.7,40.6,30.22,ENE,74,2.0,3.0,59,0.00,,,0.00,meteohub,2013-05-06 00:52:00,
2013-05-05 20:57:00,54.3,40.8,30.22,SE,133,1.0,3.0,60,0.00,,,0.00,meteohub,2013-05-06 00:57:00,
2013-05-05 21:02:00,54.1,40.6,30.22,NE,56,1.0,3.0,60,0.00,,,0.00,meteohub,2013-05-06 01:02:00,
2013-05-05 21:07:00,54.1,41.0,30.22,SE,144,1.0,3.0,61,0.00,,,0.00,meteohub,2013-05-06 01:07:00,
2013-05-05 21:12:00,53.8,40.6,30.22,SE,139,2.0,3.0,61,0.00,,,0.00,meteohub,2013-05-06 01:12:00,
2013-05-05 21:17:00,53.4,40.6,30.23,ENE,61,2.0,3.0,62,0.00,,,0.00,meteohub,2013-05-06 01:17:00,
2013-05-05 21:22:00,53.2,41.0,30.22,ESE,105,0.0,3.0,63,0.00,,,0.00,meteohub,2013-05-06 01:22:00,
2013-05-05 21:27:00,53.1,40.8,30.23,East,94,0.0,3.0,63,0.00,,,0.00,meteohub,2013-05-06 01:27:00,
2013-05-05 21:32:00,52.7,40.5,30.23,East,94,0.0,3.0,63,0.00,,,0.00,meteohub,2013-05-06 01:32:00,
2013-05-05 21:37:00,52.5,40.3,30.23,East,94,0.0,3.0,63,0.00,,,0.00,meteohub,2013-05-06 01:37:00,
2013-05-05 21:42:00,52.3,41.0,30.23,East,94,0.0,2.0,65,0.00,,,0.00,meteohub,2013-05-06 01:42:00,
2013-05-05 21:47:00,52.2,40.8,30.23,East,94,1.0,2.0,65,0.00,,,0.00,meteohub,2013-05-06 01:47:00,
2013-05-05 21:52:00,52.0,41.4,30.23,East,94,0.0,2.0,67,0.00,,,0.00,meteohub,2013-05-06 01:52:00,
2013-05-05 21:57:00,51.6,40.6,30.23,East,94,0.0,1.0,66,0.00,,,0.00,meteohub,2013-05-06 01:57:00,
2013-05-05 22:02:00,51.3,40.3,30.23,East,94,0.0,1.0,66,0.00,,,0.00,meteohub,2013-05-06 02:02:00,
2013-05-05 22:07:00,51.1,40.5,30.23,East,94,0.0,1.0,67,0.00,,,0.00,meteohub,2013-05-06 02:07:00,
2013-05-05 22:12:00,50.5,40.5,30.23,East,94,0.0,1.0,68,0.00,,,0.00,meteohub,2013-05-06 02:12:00,
2013-05-05 22:17:00,50.2,40.5,30.23,East,94,0.0,1.0,69,0.00,,,0.00,meteohub,2013-05-06 02:17:00,
2013-05-05 22:22:00,49.8,41.2,30.23,East,94,0.0,1.0,72,0.00,,,0.00,meteohub,2013-05-06 02:22:00,
2013-05-05 22:27:00,49.5,40.5,30.22,East,94,0.0,1.0,71,0.00,,,0.00,meteohub,2013-05-06 02:27:00,
2013-05-05 22:32:00,48.9,40.6,30.23,East,94,0.0,1.0,73,0.00,,,0.00,meteohub,2013-05-06 02:32:00,
2013-05-05 22:37:00,48.6,40.3,30.22,East,94,0.0,0.0,73,0.00,,,0.00,meteohub,2013-05-06 02:37:00,
2013-05-05 22:42:00,48.2,40.6,30.22,East,94,0.0,0.0,75,0.00,,,0.00,meteohub,2013-05-06 02:42:00,
2013-05-05 22:47:00,47.8,41.0,30.22,East,94,0.0,0.0,77,0.00,,,0.00,meteohub,2013-05-06 02:47:00,
2013-05-05 22:52:00,47.5,40.6,30.22,East,94,0.0,0.0,77,0.00,,,0.00,meteohub,2013-05-06 02:52:00,
2013-05-05 22:57:00,47.1,41.0,30.22,East,94,0.0,0.0,79,0.00,,,0.00,meteohub,2013-05-06 02:57:00,
2013-05-05 23:02:00,46.9,40.8,30.22,East,94,0.0,0.0,79,0.00,,,0.00,meteohub,2013-05-06 03:02:00,
2013-05-05 23:07:00,46.6,40.5,30.22,East,94,0.0,0.0,79,0.00,,,0.00,meteohub,2013-05-06 03:07:00,
2013-05-05 23:12:00,46.2,40.1,30.22,East,94,0.0,0.0,79,0.00,,,0.00,meteohub,2013-05-06 03:12:00,
2013-05-05 23:17:00,45.9,40.1,30.22,East,94,0.0,0.0,80,0.00,,,0.00,meteohub,2013-05-06 03:17:00,
2013-05-05 23:22:00,45.7,39.9,30.22,East,94,0.0,0.0,80,0.00,,,0.00,meteohub,2013-05-06 03:22:00,
2013-05-05 23:27:00,45.3,40.1,30.22,East,94,0.0,0.0,82,0.00,,,0.00,meteohub,2013-05-06 03:27:00,
2013-05-05 23:32:00,45.1,39.9,30.22,East,94,0.0,0.0,82,0.00,,,0.00,meteohub,2013-05-06 03:32:00,
2013-05-05 23:37:00,45.1,40.3,30.22,East,94,0.0,0.0,83,0.00,,,0.00,meteohub,2013-05-06 03:37:00,
2013-05-05 23:42:00,45.0,40.5,30.22,East,94,0.0,1.0,84,0.00,,,0.00,meteohub,2013-05-06 03:42:00,
2013-05-05 23:47:00,44.6,39.7,30.22,East,98,0.0,1.0,83,0.00,,,0.00,meteohub,2013-05-06 03:47:00,
2013-05-05 23:52:00,44.4,39.9,30.22,East,96,1.0,1.0,84,0.00,,,0.00,meteohub,2013-05-06 03:52:00,
2013-05-05 23:57:00,44.4,40.3,30.22,East,96,1.0,2.0,85,0.00,,,0.00,meteohub,2013-05-06 03:57:00,